Time,TemperatureF,DewpointF,PressureIn,WindDirection,WindDirectionDegrees,WindSpeedMPH,WindSpeedGustMPH,Humidity,HourlyPrecipIn,Conditions,Clouds,dailyrainin,SoftwareType,DateUTC
2013-02-19 00:27:00,34.6,24.1,26.76,East,80,0.0,0.0,65,0.00,,,-99.99,VWS V12.07,2013-02-19 05:27:00,
2013-02-19 00:57:00,34.8,24.2,26.75,ESE,111,0.0,0.0,65,0.00,,,-99.99,VWS V12.07,2013-02-19 05:57:00,
2013-02-19 01:27:00,34.3,23.8,26.74,East,79,0.0,0.0,65,0.00,,,-99.99,VWS V12.07,2013-02-19 06:27:00,
2013-02-19 01:57:00,33.8,24.0,26.72,ENE,78,0.0,0.0,67,0.00,,,-99.99,VWS V12.07,2013-02-19 06:57:00,
2013-02-19 02:27:00,33.6,23.8,26.69,East,88,0.0,0.0,67,0.00,,,-99.99,VWS V12.07,2013-02-19 07:27:00,
2013-02-19 02:57:00,33.6,24.2,26.70,South,175,0.0,0.0,68,0.00,,,-99.99,VWS V12.07,2013-02-19 07:57:00,
2013-02-19 03:27:00,33.2,24.1,26.68,North,11,0.0,0.0,69,0.00,,,-99.99,VWS V12.07,2013-02-19 08:27:00,
2013-02-19 03:57:00,33.8,24.0,26.68,NNE,29,0.0,0.0,67,0.00,,,-99.99,VWS V12.07,2013-02-19 08:57:00,
2013-02-19 04:27:00,34.8,22.7,26.69,South,175,0.0,0.0,61,0.00,,,-99.99,VWS V12.07,2013-02-19 09:27:00,
2013-02-19 04:57:00,34.6,22.9,26.68,SSE,155,0.0,0.0,62,0.00,,,-99.99,VWS V12.07,2013-02-19 09:57:00,
2013-02-19 05:27:00,35.1,23.0,26.67,South,170,0.0,0.0,61,0.00,,,-99.99,VWS V12.07,2013-02-19 10:27:00,
2013-02-19 05:57:00,34.6,25.1,26.67,SSE,163,0.0,0.0,68,0.00,,,-99.99,VWS V12.07,2013-02-19 10:57:00,
2013-02-19 06:27:00,31.4,28.8,26.67,SSE,167,0.0,0.0,90,0.00,,,-99.99,VWS V12.07,2013-02-19 11:27:00,
2013-02-19 06:57:00,31.4,31.1,26.65,SSE,154,0.0,0.0,99,0.00,,,-99.99,VWS V12.07,2013-02-19 11:57:00,
2013-02-19 07:27:00,32.0,32.0,26.64,SSE,148,0.0,0.0,100,0.00,,,-99.99,VWS V12.07,2013-02-19 12:27:00,
2013-02-19 07:57:00,33.2,33.2,26.64,SW,222,0.0,0.0,100,0.00,,,-99.99,VWS V12.07,2013-02-19 12:57:00,
2013-02-19 08:27:00,34.1,34.1,26.62,West,271,0.0,0.0,100,0.00,,,-99.99,VWS V12.07,2013-02-19 13:27:00,
2013-02-19 08:57:00,34.5,34.2,26.61,SSE,162,0.0,0.0,99,0.00,,,-99.99,VWS V12.07,2013-02-19 13:57:00,
2013-02-19 09:27:00,34.5,34.2,26.61,SE,140,0.0,0.0,99,0.00,,,-99.99,VWS V12.07,2013-02-19 14:27:00,
2013-02-19 09:57:00,34.7,34.7,26.61,SSE,161,0.0,0.0,100,0.01,,,-99.99,VWS V12.07,2013-02-19 14:57:00,
2013-02-19 10:27:00,35.1,34.8,26.60,SSE,158,0.0,0.0,99,0.02,,,-99.99,VWS V12.07,2013-02-19 15:27:00,
2013-02-19 10:57:00,36.5,36.2,26.60,SSE,163,0.0,0.0,99,0.02,,,-99.99,VWS V12.07,2013-02-19 15:57:00,
2013-02-19 11:27:00,39.2,38.4,26.59,South,183,0.0,0.0,97,0.01,,,-99.99,VWS V12.07,2013-02-19 16:27:00,
2013-02-19 11:57:00,39.9,38.3,26.57,SSE,161,0.0,0.0,94,0.00,,,-99.99,VWS V12.07,2013-02-19 16:57:00,
2013-02-19 12:27:00,40.3,38.7,26.56,SW,226,0.0,0.0,94,0.00,,,-99.99,VWS V12.07,2013-02-19 17:27:00,
2013-02-19 12:57:00,39.9,38.0,26.55,South,171,0.0,0.0,93,0.00,,,-99.99,VWS V12.07,2013-02-19 17:57:00,
2013-02-19 13:27:00,40.7,38.3,26.54,SW,217,0.0,0.0,91,0.00,,,-99.99,VWS V12.07,2013-02-19 18:27:00,
2013-02-19 13:57:00,38.8,37.2,26.54,SW,222,0.0,0.0,94,0.00,,,-99.99,VWS V12.07,2013-02-19 18:57:00,
2013-02-19 14:26:00,42.1,37.0,26.53,SSW,208,0.0,0.0,82,0.00,,,-99.99,VWS V12.07,2013-02-19 19:26:00,
2013-02-19 14:57:00,41.2,34.9,26.53,SSW,204,0.0,0.0,78,0.00,,,-99.99,VWS V12.07,2013-02-19 19:57:00,
2013-02-19 15:27:00,39.5,31.9,26.53,SW,226,0.0,0.0,74,0.00,,,-99.99,VWS V12.07,2013-02-19 20:27:00,
2013-02-19 15:57:00,39.6,29.9,26.53,SSW,211,0.0,0.0,68,0.00,,,-99.99,VWS V12.07,2013-02-19 20:57:00,
2013-02-19 16:27:00,39.9,29.5,26.53,SW,229,0.0,0.0,66,0.00,,,-99.99,VWS V12.07,2013-02-19 21:27:00,
2013-02-19 16:57:00,39.6,28.1,26.54,SW,220,0.0,0.0,63,0.00,,,-99.99,VWS V12.07,2013-02-19 21:57:00,
2013-02-19 17:27:00,37.1,26.8,26.54,SSW,213,0.0,0.0,66,0.00,,,-99.99,VWS V12.07,2013-02-19 22:27:00,
2013-02-19 17:57:00,36.4,26.9,26.55,West,259,0.0,0.0,68,0.00,,,-99.99,VWS V12.07,2013-02-19 22:57:00,
2013-02-19 18:27:00,36.2,24.8,26.56,SSW,209,0.0,0.0,63,0.00,,,-99.99,VWS V12.07,2013-02-19 23:27:00,
2013-02-19 18:57:00,35.8,20.8,26.57,SW,220,0.0,0.0,54,0.00,,,-99.99,VWS V12.07,2013-02-19 23:57:00,
2013-02-19 19:27:00,35.2,18.0,26.57,SW,220,0.0,0.0,49,0.01,,,-99.99,VWS V12.07,2013-02-20 00:27:00,
2013-02-19 19:57:00,34.5,18.7,26.58,SSW,200,0.0,0.0,52,0.01,,,-99.99,VWS V12.07,2013-02-20 00:57:00,
2013-02-19 20:27:00,33.8,16.2,26.58,WNW,296,0.0,0.0,48,0.01,,,-99.99,VWS V12.07,2013-02-20 01:27:00,
2013-02-19 20:57:00,32.9,15.9,26.59,SSW,204,0.0,0.0,49,0.00,,,-99.99,VWS V12.07,2013-02-20 01:57:00,
2013-02-19 21:27:00,31.5,13.1,26.59,SW,223,0.0,0.0,46,0.00,,,-99.99,VWS V12.07,2013-02-20 02:27:00,
2013-02-19 21:57:00,30.8,12.0,26.60,SSW,202,0.0,0.0,45,0.00,,,-99.99,VWS V12.07,2013-02-20 02:57:00,
2013-02-19 22:27:00,30.1,12.8,26.60,SSW,212,0.0,0.0,48,0.00,,,-99.99,VWS V12.07,2013-02-20 03:27:00,
2013-02-19 22:57:00,29.2,13.3,26.59,SSW,200,0.0,0.0,51,0.00,,,-99.99,VWS V12.07,2013-02-20 03:57:00,
2013-02-19 23:27:00,28.4,12.1,26.59,SSW,200,0.0,0.0,50,0.00,,,-99.99,VWS V12.07,2013-02-20 04:27:00,
2013-02-19 23:57:00,27.4,13.0,26.59,SSW,207,0.0,0.0,54,0.00,,,-99.99,VWS V12.07,2013-02-20 04:57:00,